sensor_id;sensor_type;location;lat;lon;timestamp;P1;durP1;ratioP1;P2;durP2;ratioP2
38787;SDS011;24536;45.488;12.238;2023-02-15T00:01:54;83.40;;;54.08;;
38787;SDS011;24536;45.488;12.238;2023-02-15T00:04:23;84.60;;;55.30;;
38787;SDS011;24536;45.488;12.238;2023-02-15T00:07:09;83.00;;;53.40;;
38787;SDS011;24536;45.488;12.238;2023-02-15T00:09:35;77.57;;;53.28;;
38787;SDS011;24536;45.488;12.238;2023-02-15T00:12:01;79.10;;;53.60;;
38787;SDS011;24536;45.488;12.238;2023-02-15T00:14:26;87.18;;;57.42;;
38787;SDS011;24536;45.488;12.238;2023-02-15T00:16:52;82.68;;;54.10;;
38787;SDS011;24536;45.488;12.238;2023-02-15T00:19:19;88.10;;;57.10;;
38787;SDS011;24536;45.488;12.238;2023-02-15T00:21:46;87.22;;;55.75;;
38787;SDS011;24536;45.488;12.238;2023-02-15T00:24:14;82.65;;;53.70;;
38787;SDS011;24536;45.488;12.238;2023-02-15T00:26:41;80.50;;;54.17;;
38787;SDS011;24536;45.488;12.238;2023-02-15T00:29:08;87.03;;;53.90;;
38787;SDS011;24536;45.488;12.238;2023-02-15T00:31:34;78.07;;;53.90;;
38787;SDS011;24536;45.488;12.238;2023-02-15T00:34:04;80.90;;;54.58;;
38787;SDS011;24536;45.488;12.238;2023-02-15T00:36:31;77.13;;;53.03;;
38787;SDS011;24536;45.488;12.238;2023-02-15T00:38:57;81.38;;;54.50;;
38787;SDS011;24536;45.488;12.238;2023-02-15T00:41:23;82.53;;;53.50;;
38787;SDS011;24536;45.488;12.238;2023-02-15T00:43:49;79.55;;;52.55;;
38787;SDS011;24536;45.488;12.238;2023-02-15T00:46:15;77.22;;;51.25;;
38787;SDS011;24536;45.488;12.238;2023-02-15T00:48:41;81.82;;;53.20;;
38787;SDS011;24536;45.488;12.238;2023-02-15T00:51:07;78.57;;;51.30;;
38787;SDS011;24536;45.488;12.238;2023-02-15T00:53:32;80.00;;;51.65;;
38787;SDS011;24536;45.488;12.238;2023-02-15T00:55:58;79.38;;;50.95;;
38787;SDS011;24536;45.488;12.238;2023-02-15T00:58:24;72.35;;;50.83;;
38787;SDS011;24536;45.488;12.238;2023-02-15T01:00:50;80.03;;;52.25;;
38787;SDS011;24536;45.488;12.238;2023-02-15T01:03:17;77.78;;;51.67;;
38787;SDS011;24536;45.488;12.238;2023-02-15T01:05:44;76.32;;;51.95;;
38787;SDS011;24536;45.488;12.238;2023-02-15T01:08:11;74.28;;;51.22;;
38787;SDS011;24536;45.488;12.238;2023-02-15T01:10:37;78.75;;;53.78;;
38787;SDS011;24536;45.488;12.238;2023-02-15T01:13:03;77.15;;;50.38;;
38787;SDS011;24536;45.488;12.238;2023-02-15T01:15:29;75.20;;;51.10;;
38787;SDS011;24536;45.488;12.238;2023-02-15T01:17:55;78.22;;;52.72;;
38787;SDS011;24536;45.488;12.238;2023-02-15T01:20:21;82.65;;;53.90;;
38787;SDS011;24536;45.488;12.238;2023-02-15T01:22:50;82.32;;;53.03;;
38787;SDS011;24536;45.488;12.238;2023-02-15T01:25:16;80.57;;;52.40;;
38787;SDS011;24536;45.488;12.238;2023-02-15T01:27:42;77.32;;;52.00;;
38787;SDS011;24536;45.488;12.238;2023-02-15T01:30:08;81.43;;;53.28;;
38787;SDS011;24536;45.488;12.238;2023-02-15T01:32:34;80.57;;;52.25;;
38787;SDS011;24536;45.488;12.238;2023-02-15T01:35:00;77.05;;;52.05;;
38787;SDS011;24536;45.488;12.238;2023-02-15T01:37:26;79.05;;;52.00;;
38787;SDS011;24536;45.488;12.238;2023-02-15T01:39:52;77.68;;;53.08;;
38787;SDS011;24536;45.488;12.238;2023-02-15T01:42:24;75.32;;;51.90;;
38787;SDS011;24536;45.488;12.238;2023-02-15T01:50:13;75.45;;;50.80;;
38787;SDS011;24536;45.488;12.238;2023-02-15T01:55:11;73.38;;;50.53;;
38787;SDS011;24536;45.488;12.238;2023-02-15T01:57:39;76.70;;;50.83;;
38787;SDS011;24536;45.488;12.238;2023-02-15T02:00:05;77.13;;;53.25;;
38787;SDS011;24536;45.488;12.238;2023-02-15T02:02:32;74.32;;;49.72;;
38787;SDS011;24536;45.488;12.238;2023-02-15T02:04:59;75.82;;;49.90;;
38787;SDS011;24536;45.488;12.238;2023-02-15T02:07:41;74.55;;;51.72;;
38787;SDS011;24536;45.488;12.238;2023-02-15T02:10:11;78.75;;;51.13;;
38787;SDS011;24536;45.488;12.238;2023-02-15T02:12:39;72.60;;;49.95;;
38787;SDS011;24536;45.488;12.238;2023-02-15T02:15:09;76.85;;;51.88;;
38787;SDS011;24536;45.488;12.238;2023-02-15T02:41:44;82.25;;;52.00;;
38787;SDS011;24536;45.488;12.238;2023-02-15T02:44:13;81.43;;;50.90;;
38787;SDS011;24536;45.488;12.238;2023-02-15T02:49:11;81.07;;;50.13;;
38787;SDS011;24536;45.488;12.238;2023-02-15T02:51:37;73.25;;;49.08;;
38787;SDS011;24536;45.488;12.238;2023-02-15T02:54:04;72.13;;;48.95;;
38787;SDS011;24536;45.488;12.238;2023-02-15T02:56:39;79.03;;;49.22;;
38787;SDS011;24536;45.488;12.238;2023-02-15T02:59:18;71.20;;;47.73;;
38787;SDS011;24536;45.488;12.238;2023-02-15T03:01:57;74.10;;;47.92;;
38787;SDS011;24536;45.488;12.238;2023-02-15T03:04:33;75.65;;;49.50;;
38787;SDS011;24536;45.488;12.238;2023-02-15T03:07:05;74.13;;;49.45;;
38787;SDS011;24536;45.488;12.238;2023-02-15T03:12:30;91.43;;;49.15;;
38787;SDS011;24536;45.488;12.238;2023-02-15T03:15:08;72.28;;;47.20;;
38787;SDS011;24536;45.488;12.238;2023-02-15T03:17:43;76.00;;;47.65;;
38787;SDS011;24536;45.488;12.238;2023-02-15T03:20:14;77.07;;;48.33;;
38787;SDS011;24536;45.488;12.238;2023-02-15T03:22:48;77.32;;;48.25;;
38787;SDS011;24536;45.488;12.238;2023-02-15T03:25:21;72.25;;;47.85;;
38787;SDS011;24536;45.488;12.238;2023-02-15T03:27:53;67.85;;;45.80;;
38787;SDS011;24536;45.488;12.238;2023-02-15T03:30:22;74.07;;;47.35;;
38787;SDS011;24536;45.488;12.238;2023-02-15T03:32:49;71.40;;;46.00;;
38787;SDS011;24536;45.488;12.238;2023-02-15T03:35:17;77.88;;;48.22;;
38787;SDS011;24536;45.488;12.238;2023-02-15T03:37:49;73.20;;;48.90;;
38787;SDS011;24536;45.488;12.238;2023-02-15T03:40:24;70.85;;;47.03;;
38787;SDS011;24536;45.488;12.238;2023-02-15T03:45:47;72.00;;;49.05;;
38787;SDS011;24536;45.488;12.238;2023-02-15T03:48:24;75.28;;;47.00;;
38787;SDS011;24536;45.488;12.238;2023-02-15T03:51:12;67.05;;;45.13;;
38787;SDS011;24536;45.488;12.238;2023-02-15T03:54:09;70.63;;;46.13;;
38787;SDS011;24536;45.488;12.238;2023-02-15T03:57:18;68.55;;;44.72;;
38787;SDS011;24536;45.488;12.238;2023-02-15T04:00:05;77.15;;;47.25;;
38787;SDS011;24536;45.488;12.238;2023-02-15T04:03:08;67.75;;;42.78;;
38787;SDS011;24536;45.488;12.238;2023-02-15T04:05:53;68.85;;;43.70;;
38787;SDS011;24536;45.488;12.238;2023-02-15T04:08:19;68.72;;;45.08;;
38787;SDS011;24536;45.488;12.238;2023-02-15T04:11:05;69.28;;;44.35;;
38787;SDS011;24536;45.488;12.238;2023-02-15T04:13:31;69.10;;;46.03;;
38787;SDS011;24536;45.488;12.238;2023-02-15T04:15:58;75.25;;;46.78;;
38787;SDS011;24536;45.488;12.238;2023-02-15T04:18:40;70.45;;;45.70;;
38787;SDS011;24536;45.488;12.238;2023-02-15T04:21:27;65.55;;;44.58;;
38787;SDS011;24536;45.488;12.238;2023-02-15T04:24:14;70.28;;;44.95;;
38787;SDS011;24536;45.488;12.238;2023-02-15T04:26:59;68.15;;;43.67;;
38787;SDS011;24536;45.488;12.238;2023-02-15T04:29:25;64.47;;;43.67;;
38787;SDS011;24536;45.488;12.238;2023-02-15T04:31:52;65.47;;;43.50;;
38787;SDS011;24536;45.488;12.238;2023-02-15T04:34:19;64.22;;;42.97;;
38787;SDS011;24536;45.488;12.238;2023-02-15T04:36:45;69.15;;;44.30;;
38787;SDS011;24536;45.488;12.238;2023-02-15T04:39:14;65.65;;;41.88;;
38787;SDS011;24536;45.488;12.238;2023-02-15T04:41:41;67.80;;;43.05;;
38787;SDS011;24536;45.488;12.238;2023-02-15T04:44:07;64.75;;;43.10;;
38787;SDS011;24536;45.488;12.238;2023-02-15T04:46:33;65.50;;;44.90;;
38787;SDS011;24536;45.488;12.238;2023-02-15T04:48:59;68.90;;;45.42;;
38787;SDS011;24536;45.488;12.238;2023-02-15T04:51:25;69.38;;;45.30;;
38787;SDS011;24536;45.488;12.238;2023-02-15T04:53:51;70.32;;;46.08;;
38787;SDS011;24536;45.488;12.238;2023-02-15T04:56:20;75.85;;;46.08;;
38787;SDS011;24536;45.488;12.238;2023-02-15T04:58:46;67.95;;;46.08;;
38787;SDS011;24536;45.488;12.238;2023-02-15T05:01:12;76.15;;;48.35;;
38787;SDS011;24536;45.488;12.238;2023-02-15T05:03:38;70.00;;;45.50;;
38787;SDS011;24536;45.488;12.238;2023-02-15T05:06:04;76.05;;;47.25;;
38787;SDS011;24536;45.488;12.238;2023-02-15T05:08:31;67.63;;;44.60;;
38787;SDS011;24536;45.488;12.238;2023-02-15T05:10:56;69.60;;;44.47;;
38787;SDS011;24536;45.488;12.238;2023-02-15T05:13:23;70.55;;;45.05;;
38787;SDS011;24536;45.488;12.238;2023-02-15T05:15:49;67.38;;;44.22;;
38787;SDS011;24536;45.488;12.238;2023-02-15T05:18:16;71.45;;;44.22;;
38787;SDS011;24536;45.488;12.238;2023-02-15T05:20:42;71.43;;;44.58;;
38787;SDS011;24536;45.488;12.238;2023-02-15T05:23:08;69.50;;;43.78;;
38787;SDS011;24536;45.488;12.238;2023-02-15T05:25:34;70.95;;;45.42;;
38787;SDS011;24536;45.488;12.238;2023-02-15T05:28:18;75.28;;;46.17;;
38787;SDS011;24536;45.488;12.238;2023-02-15T05:30:44;66.22;;;42.97;;
38787;SDS011;24536;45.488;12.238;2023-02-15T05:33:11;66.32;;;43.00;;
38787;SDS011;24536;45.488;12.238;2023-02-15T05:35:36;69.10;;;43.65;;
38787;SDS011;24536;45.488;12.238;2023-02-15T05:38:02;67.32;;;41.05;;
38787;SDS011;24536;45.488;12.238;2023-02-15T05:40:28;65.57;;;42.90;;
38787;SDS011;24536;45.488;12.238;2023-02-15T05:42:55;64.50;;;42.42;;
38787;SDS011;24536;45.488;12.238;2023-02-15T05:45:21;64.95;;;42.20;;
38787;SDS011;24536;45.488;12.238;2023-02-15T05:47:47;66.22;;;43.83;;
38787;SDS011;24536;45.488;12.238;2023-02-15T05:50:13;64.63;;;43.50;;
38787;SDS011;24536;45.488;12.238;2023-02-15T05:52:39;63.35;;;41.70;;
38787;SDS011;24536;45.488;12.238;2023-02-15T05:55:05;67.10;;;43.25;;
38787;SDS011;24536;45.488;12.238;2023-02-15T05:57:31;68.60;;;42.63;;
38787;SDS011;24536;45.488;12.238;2023-02-15T05:59:57;66.88;;;42.13;;
38787;SDS011;24536;45.488;12.238;2023-02-15T06:02:23;68.25;;;43.92;;
38787;SDS011;24536;45.488;12.238;2023-02-15T06:04:49;63.25;;;43.38;;
38787;SDS011;24536;45.488;12.238;2023-02-15T06:07:15;68.70;;;42.95;;
38787;SDS011;24536;45.488;12.238;2023-02-15T06:09:41;61.03;;;40.70;;
38787;SDS011;24536;45.488;12.238;2023-02-15T06:12:06;62.80;;;40.47;;
38787;SDS011;24536;45.488;12.238;2023-02-15T06:14:32;61.35;;;39.90;;
38787;SDS011;24536;45.488;12.238;2023-02-15T06:16:58;61.22;;;40.15;;
38787;SDS011;24536;45.488;12.238;2023-02-15T06:19:24;67.90;;;42.50;;
38787;SDS011;24536;45.488;12.238;2023-02-15T06:21:49;66.25;;;43.03;;
38787;SDS011;24536;45.488;12.238;2023-02-15T06:24:15;75.55;;;42.88;;
38787;SDS011;24536;45.488;12.238;2023-02-15T06:26:41;62.67;;;41.13;;
38787;SDS011;24536;45.488;12.238;2023-02-15T06:29:07;67.85;;;43.58;;
38787;SDS011;24536;45.488;12.238;2023-02-15T06:31:32;61.70;;;41.83;;
38787;SDS011;24536;45.488;12.238;2023-02-15T06:33:58;64.50;;;43.03;;
38787;SDS011;24536;45.488;12.238;2023-02-15T06:36:28;68.22;;;42.65;;
38787;SDS011;24536;45.488;12.238;2023-02-15T06:38:54;69.18;;;42.65;;
38787;SDS011;24536;45.488;12.238;2023-02-15T06:41:20;60.42;;;40.45;;
38787;SDS011;24536;45.488;12.238;2023-02-15T06:43:46;65.95;;;42.15;;
38787;SDS011;24536;45.488;12.238;2023-02-15T06:46:12;66.25;;;41.83;;
38787;SDS011;24536;45.488;12.238;2023-02-15T06:48:38;68.22;;;44.63;;
38787;SDS011;24536;45.488;12.238;2023-02-15T06:51:04;62.30;;;39.10;;
38787;SDS011;24536;45.488;12.238;2023-02-15T06:53:30;62.00;;;40.80;;
38787;SDS011;24536;45.488;12.238;2023-02-15T06:56:00;68.25;;;44.20;;
38787;SDS011;24536;45.488;12.238;2023-02-15T06:58:32;69.60;;;43.80;;
38787;SDS011;24536;45.488;12.238;2023-02-15T07:00:58;69.10;;;44.03;;
38787;SDS011;24536;45.488;12.238;2023-02-15T07:03:24;66.10;;;44.28;;
38787;SDS011;24536;45.488;12.238;2023-02-15T07:05:53;66.45;;;42.70;;
38787;SDS011;24536;45.488;12.238;2023-02-15T07:08:23;62.88;;;41.80;;
38787;SDS011;24536;45.488;12.238;2023-02-15T07:10:50;62.67;;;42.05;;
38787;SDS011;24536;45.488;12.238;2023-02-15T07:13:16;68.85;;;43.30;;
38787;SDS011;24536;45.488;12.238;2023-02-15T07:15:42;69.05;;;42.20;;
38787;SDS011;24536;45.488;12.238;2023-02-15T07:18:08;64.20;;;41.58;;
38787;SDS011;24536;45.488;12.238;2023-02-15T07:20:35;64.97;;;41.80;;
38787;SDS011;24536;45.488;12.238;2023-02-15T07:23:02;63.90;;;41.80;;
38787;SDS011;24536;45.488;12.238;2023-02-15T07:25:29;61.65;;;40.10;;
38787;SDS011;24536;45.488;12.238;2023-02-15T07:27:58;66.13;;;42.22;;
38787;SDS011;24536;45.488;12.238;2023-02-15T07:30:25;67.05;;;42.17;;
38787;SDS011;24536;45.488;12.238;2023-02-15T07:32:58;60.75;;;41.65;;
38787;SDS011;24536;45.488;12.238;2023-02-15T07:36:01;61.17;;;41.53;;
38787;SDS011;24536;45.488;12.238;2023-02-15T07:38:32;61.47;;;41.03;;
38787;SDS011;24536;45.488;12.238;2023-02-15T07:41:02;62.35;;;42.20;;
38787;SDS011;24536;45.488;12.238;2023-02-15T07:43:32;70.03;;;42.13;;
38787;SDS011;24536;45.488;12.238;2023-02-15T07:45:59;64.65;;;40.83;;
38787;SDS011;24536;45.488;12.238;2023-02-15T07:48:30;64.20;;;40.47;;
38787;SDS011;24536;45.488;12.238;2023-02-15T07:51:00;57.92;;;39.65;;
38787;SDS011;24536;45.488;12.238;2023-02-15T07:53:27;65.30;;;40.10;;
38787;SDS011;24536;45.488;12.238;2023-02-15T07:55:53;62.72;;;39.67;;
38787;SDS011;24536;45.488;12.238;2023-02-15T07:58:20;60.40;;;39.13;;
38787;SDS011;24536;45.488;12.238;2023-02-15T08:00:45;63.67;;;41.05;;
38787;SDS011;24536;45.488;12.238;2023-02-15T08:03:26;61.88;;;41.03;;
38787;SDS011;24536;45.488;12.238;2023-02-15T08:05:57;65.70;;;40.65;;
38787;SDS011;24536;45.488;12.238;2023-02-15T08:08:24;65.70;;;42.72;;
38787;SDS011;24536;45.488;12.238;2023-02-15T08:11:00;64.80;;;42.95;;
38787;SDS011;24536;45.488;12.238;2023-02-15T08:13:45;72.18;;;47.20;;
38787;SDS011;24536;45.488;12.238;2023-02-15T08:18:55;73.32;;;48.38;;
38787;SDS011;24536;45.488;12.238;2023-02-15T08:21:22;56.30;;;35.30;;
38787;SDS011;24536;45.488;12.238;2023-02-15T08:23:48;69.57;;;42.20;;
38787;SDS011;24536;45.488;12.238;2023-02-15T08:26:14;66.63;;;44.35;;
38787;SDS011;24536;45.488;12.238;2023-02-15T08:28:41;73.53;;;47.92;;
38787;SDS011;24536;45.488;12.238;2023-02-15T08:31:09;74.60;;;44.25;;
38787;SDS011;24536;45.488;12.238;2023-02-15T08:33:37;89.40;;;55.30;;
38787;SDS011;24536;45.488;12.238;2023-02-15T08:36:07;77.55;;;49.83;;
38787;SDS011;24536;45.488;12.238;2023-02-15T08:38:35;76.47;;;47.55;;
38787;SDS011;24536;45.488;12.238;2023-02-15T08:43:41;70.68;;;42.63;;
38787;SDS011;24536;45.488;12.238;2023-02-15T08:46:08;66.88;;;44.67;;
38787;SDS011;24536;45.488;12.238;2023-02-15T08:48:35;70.45;;;45.03;;
38787;SDS011;24536;45.488;12.238;2023-02-15T08:51:05;65.07;;;43.45;;
38787;SDS011;24536;45.488;12.238;2023-02-15T08:53:32;60.47;;;42.83;;
38787;SDS011;24536;45.488;12.238;2023-02-15T08:55:58;65.70;;;42.17;;
38787;SDS011;24536;45.488;12.238;2023-02-15T08:58:25;55.15;;;37.67;;
38787;SDS011;24536;45.488;12.238;2023-02-15T09:00:51;59.22;;;36.38;;
38787;SDS011;24536;45.488;12.238;2023-02-15T09:03:16;65.03;;;38.17;;
38787;SDS011;24536;45.488;12.238;2023-02-15T09:05:42;61.78;;;39.13;;
38787;SDS011;24536;45.488;12.238;2023-02-15T09:08:08;60.40;;;39.00;;
38787;SDS011;24536;45.488;12.238;2023-02-15T09:10:34;53.03;;;37.83;;
38787;SDS011;24536;45.488;12.238;2023-02-15T09:12:59;51.08;;;35.63;;
38787;SDS011;24536;45.488;12.238;2023-02-15T09:15:25;48.28;;;33.55;;
38787;SDS011;24536;45.488;12.238;2023-02-15T09:17:51;45.88;;;33.00;;
38787;SDS011;24536;45.488;12.238;2023-02-15T09:20:17;45.97;;;32.03;;
38787;SDS011;24536;45.488;12.238;2023-02-15T09:22:42;46.80;;;31.50;;
38787;SDS011;24536;45.488;12.238;2023-02-15T09:25:09;42.90;;;29.75;;
38787;SDS011;24536;45.488;12.238;2023-02-15T09:27:34;44.50;;;27.75;;
38787;SDS011;24536;45.488;12.238;2023-02-15T09:30:01;41.08;;;27.08;;
38787;SDS011;24536;45.488;12.238;2023-02-15T09:32:28;34.97;;;23.85;;
38787;SDS011;24536;45.488;12.238;2023-02-15T09:34:54;33.65;;;22.35;;
38787;SDS011;24536;45.488;12.238;2023-02-15T09:37:19;34.58;;;24.08;;
38787;SDS011;24536;45.488;12.238;2023-02-15T09:39:45;32.42;;;23.10;;
38787;SDS011;24536;45.488;12.238;2023-02-15T09:53:18;35.63;;;25.55;;
38787;SDS011;24536;45.488;12.238;2023-02-15T09:56:09;41.65;;;26.77;;
38787;SDS011;24536;45.488;12.238;2023-02-15T10:14:55;39.70;;;23.35;;
38787;SDS011;24536;45.488;12.238;2023-02-15T10:28:06;32.17;;;21.55;;
38787;SDS011;24536;45.488;12.238;2023-02-15T10:42:03;30.90;;;20.00;;
38787;SDS011;24536;45.488;12.238;2023-02-15T10:47:41;29.08;;;18.27;;
38787;SDS011;24536;45.488;12.238;2023-02-15T10:52:39;28.92;;;16.23;;
38787;SDS011;24536;45.488;12.238;2023-02-15T10:55:33;24.75;;;18.08;;
38787;SDS011;24536;45.488;12.238;2023-02-15T11:03:36;23.10;;;16.45;;
38787;SDS011;24536;45.488;12.238;2023-02-15T11:06:07;22.63;;;15.98;;
38787;SDS011;24536;45.488;12.238;2023-02-15T11:08:39;25.08;;;16.45;;
38787;SDS011;24536;45.488;12.238;2023-02-15T11:11:11;27.42;;;17.23;;
38787;SDS011;24536;45.488;12.238;2023-02-15T11:13:44;23.27;;;16.73;;
38787;SDS011;24536;45.488;12.238;2023-02-15T11:16:17;21.55;;;15.65;;
38787;SDS011;24536;45.488;12.238;2023-02-15T11:21:32;26.17;;;17.10;;
38787;SDS011;24536;45.488;12.238;2023-02-15T11:24:09;27.38;;;18.92;;
38787;SDS011;24536;45.488;12.238;2023-02-15T11:32:01;26.63;;;19.15;;
38787;SDS011;24536;45.488;12.238;2023-02-15T11:38:13;29.02;;;18.58;;
38787;SDS011;24536;45.488;12.238;2023-02-15T11:40:42;28.23;;;19.95;;
38787;SDS011;24536;45.488;12.238;2023-02-15T11:43:16;28.42;;;19.58;;
38787;SDS011;24536;45.488;12.238;2023-02-15T11:46:03;29.93;;;20.37;;
38787;SDS011;24536;45.488;12.238;2023-02-15T11:48:29;31.80;;;21.27;;
38787;SDS011;24536;45.488;12.238;2023-02-15T11:50:56;32.17;;;20.55;;
38787;SDS011;24536;45.488;12.238;2023-02-15T11:53:23;29.38;;;21.63;;
38787;SDS011;24536;45.488;12.238;2023-02-15T11:55:52;27.70;;;18.60;;
38787;SDS011;24536;45.488;12.238;2023-02-15T12:08:46;26.63;;;20.27;;
38787;SDS011;24536;45.488;12.238;2023-02-15T12:11:19;30.25;;;21.05;;
38787;SDS011;24536;45.488;12.238;2023-02-15T12:13:58;28.90;;;20.42;;
38787;SDS011;24536;45.488;12.238;2023-02-15T12:16:26;27.48;;;19.73;;
38787;SDS011;24536;45.488;12.238;2023-02-15T12:18:57;28.80;;;20.02;;
38787;SDS011;24536;45.488;12.238;2023-02-15T12:21:34;29.73;;;19.85;;
38787;SDS011;24536;45.488;12.238;2023-02-15T12:26:41;29.42;;;21.73;;
38787;SDS011;24536;45.488;12.238;2023-02-15T12:29:07;30.15;;;22.05;;
38787;SDS011;24536;45.488;12.238;2023-02-15T12:31:44;27.85;;;19.73;;
38787;SDS011;24536;45.488;12.238;2023-02-15T12:34:17;28.30;;;20.98;;
38787;SDS011;24536;45.488;12.238;2023-02-15T12:36:54;31.05;;;19.42;;
38787;SDS011;24536;45.488;12.238;2023-02-15T12:39:30;25.50;;;18.13;;
38787;SDS011;24536;45.488;12.238;2023-02-15T12:42:01;24.27;;;17.02;;
38787;SDS011;24536;45.488;12.238;2023-02-15T12:44:39;23.25;;;17.52;;
38787;SDS011;24536;45.488;12.238;2023-02-15T12:47:29;26.38;;;17.33;;
38787;SDS011;24536;45.488;12.238;2023-02-15T12:50:11;22.45;;;17.48;;
38787;SDS011;24536;45.488;12.238;2023-02-15T12:52:42;30.42;;;19.45;;
38787;SDS011;24536;45.488;12.238;2023-02-15T12:55:20;29.52;;;19.77;;
38787;SDS011;24536;45.488;12.238;2023-02-15T12:57:48;30.55;;;22.30;;
38787;SDS011;24536;45.488;12.238;2023-02-15T13:00:29;32.72;;;23.55;;
38787;SDS011;24536;45.488;12.238;2023-02-15T13:02:57;30.65;;;22.63;;
38787;SDS011;24536;45.488;12.238;2023-02-15T13:05:38;36.53;;;24.38;;
38787;SDS011;24536;45.488;12.238;2023-02-15T13:08:17;47.80;;;25.52;;
38787;SDS011;24536;45.488;12.238;2023-02-15T13:10:52;34.28;;;26.02;;
38787;SDS011;24536;45.488;12.238;2023-02-15T13:13:24;35.13;;;25.48;;
38787;SDS011;24536;45.488;12.238;2023-02-15T13:15:57;36.58;;;26.35;;
38787;SDS011;24536;45.488;12.238;2023-02-15T13:18:35;39.97;;;27.47;;
38787;SDS011;24536;45.488;12.238;2023-02-15T13:23:46;37.83;;;27.02;;
38787;SDS011;24536;45.488;12.238;2023-02-15T13:26:20;42.03;;;28.25;;
38787;SDS011;24536;45.488;12.238;2023-02-15T13:28:49;38.53;;;26.63;;
38787;SDS011;24536;45.488;12.238;2023-02-15T13:31:20;43.33;;;27.50;;
38787;SDS011;24536;45.488;12.238;2023-02-15T13:34:23;40.88;;;26.90;;
38787;SDS011;24536;45.488;12.238;2023-02-15T13:36:52;38.65;;;27.67;;
38787;SDS011;24536;45.488;12.238;2023-02-15T13:55:54;44.10;;;26.35;;
38787;SDS011;24536;45.488;12.238;2023-02-15T14:14:43;36.08;;;22.67;;
38787;SDS011;24536;45.488;12.238;2023-02-15T14:28:36;34.63;;;22.58;;
38787;SDS011;24536;45.488;12.238;2023-02-15T14:31:25;39.65;;;23.02;;
38787;SDS011;24536;45.488;12.238;2023-02-15T14:33:56;34.85;;;21.85;;
38787;SDS011;24536;45.488;12.238;2023-02-15T14:36:22;39.92;;;22.58;;
38787;SDS011;24536;45.488;12.238;2023-02-15T14:38:52;49.13;;;22.48;;
38787;SDS011;24536;45.488;12.238;2023-02-15T14:49:10;39.38;;;22.73;;
38787;SDS011;24536;45.488;12.238;2023-02-15T14:54:11;39.72;;;24.10;;
38787;SDS011;24536;45.488;12.238;2023-02-15T14:59:43;49.30;;;24.67;;
38787;SDS011;24536;45.488;12.238;2023-02-15T15:07:50;50.60;;;23.92;;
38787;SDS011;24536;45.488;12.238;2023-02-15T15:12:47;44.00;;;26.55;;
38787;SDS011;24536;45.488;12.238;2023-02-15T15:15:32;44.45;;;25.92;;
38787;SDS011;24536;45.488;12.238;2023-02-15T15:18:06;44.42;;;25.58;;
38787;SDS011;24536;45.488;12.238;2023-02-15T15:50:34;51.38;;;27.77;;
38787;SDS011;24536;45.488;12.238;2023-02-15T15:53:03;57.03;;;29.15;;
38787;SDS011;24536;45.488;12.238;2023-02-15T15:55:30;56.47;;;30.77;;
38787;SDS011;24536;45.488;12.238;2023-02-15T15:57:59;56.70;;;30.77;;
38787;SDS011;24536;45.488;12.238;2023-02-15T16:02:59;51.75;;;30.25;;
38787;SDS011;24536;45.488;12.238;2023-02-15T16:05:25;50.20;;;31.27;;
38787;SDS011;24536;45.488;12.238;2023-02-15T16:07:51;57.15;;;31.88;;
38787;SDS011;24536;45.488;12.238;2023-02-15T16:12:50;55.60;;;31.90;;
38787;SDS011;24536;45.488;12.238;2023-02-15T16:15:24;61.25;;;31.80;;
38787;SDS011;24536;45.488;12.238;2023-02-15T16:17:54;59.05;;;32.92;;
38787;SDS011;24536;45.488;12.238;2023-02-15T16:20:23;61.47;;;33.13;;
38787;SDS011;24536;45.488;12.238;2023-02-15T16:28:31;55.22;;;30.15;;
38787;SDS011;24536;45.488;12.238;2023-02-15T16:33:40;55.47;;;31.05;;
38787;SDS011;24536;45.488;12.238;2023-02-15T16:36:26;53.13;;;31.00;;
38787;SDS011;24536;45.488;12.238;2023-02-15T16:41:25;58.60;;;30.90;;
38787;SDS011;24536;45.488;12.238;2023-02-15T16:43:53;59.88;;;31.25;;
38787;SDS011;24536;45.488;12.238;2023-02-15T16:46:26;56.65;;;29.08;;
38787;SDS011;24536;45.488;12.238;2023-02-15T16:48:55;60.45;;;30.65;;
38787;SDS011;24536;45.488;12.238;2023-02-15T16:51:30;51.65;;;29.98;;
38787;SDS011;24536;45.488;12.238;2023-02-15T16:53:58;54.70;;;30.27;;
38787;SDS011;24536;45.488;12.238;2023-02-15T16:56:30;57.38;;;30.98;;
38787;SDS011;24536;45.488;12.238;2023-02-15T16:58:57;56.78;;;30.60;;
38787;SDS011;24536;45.488;12.238;2023-02-15T17:01:24;52.30;;;30.40;;
38787;SDS011;24536;45.488;12.238;2023-02-15T17:04:10;53.88;;;30.83;;
38787;SDS011;24536;45.488;12.238;2023-02-15T17:06:57;57.72;;;30.45;;
38787;SDS011;24536;45.488;12.238;2023-02-15T17:09:31;51.40;;;29.60;;
38787;SDS011;24536;45.488;12.238;2023-02-15T17:11:59;53.17;;;30.00;;
38787;SDS011;24536;45.488;12.238;2023-02-15T17:14:27;55.03;;;31.67;;
38787;SDS011;24536;45.488;12.238;2023-02-15T17:17:05;61.60;;;32.03;;
38787;SDS011;24536;45.488;12.238;2023-02-15T17:19:44;61.03;;;31.50;;
38787;SDS011;24536;45.488;12.238;2023-02-15T17:22:18;58.15;;;29.85;;
38787;SDS011;24536;45.488;12.238;2023-02-15T17:24:47;52.67;;;30.55;;
38787;SDS011;24536;45.488;12.238;2023-02-15T17:29:50;52.13;;;30.33;;
38787;SDS011;24536;45.488;12.238;2023-02-15T17:32:23;49.63;;;30.05;;
38787;SDS011;24536;45.488;12.238;2023-02-15T17:35:05;59.10;;;31.75;;
38787;SDS011;24536;45.488;12.238;2023-02-15T17:37:48;51.40;;;31.23;;
38787;SDS011;24536;45.488;12.238;2023-02-15T17:40:24;52.17;;;32.00;;
38787;SDS011;24536;45.488;12.238;2023-02-15T17:42:52;59.95;;;34.15;;
38787;SDS011;24536;45.488;12.238;2023-02-15T17:45:18;52.97;;;33.28;;
38787;SDS011;24536;45.488;12.238;2023-02-15T17:47:46;61.53;;;33.05;;
38787;SDS011;24536;45.488;12.238;2023-02-15T17:50:17;56.15;;;33.22;;
38787;SDS011;24536;45.488;12.238;2023-02-15T17:52:49;57.63;;;32.50;;
38787;SDS011;24536;45.488;12.238;2023-02-15T17:55:18;55.33;;;32.35;;
38787;SDS011;24536;45.488;12.238;2023-02-15T17:58:13;53.90;;;32.10;;
38787;SDS011;24536;45.488;12.238;2023-02-15T18:00:44;56.00;;;34.05;;
38787;SDS011;24536;45.488;12.238;2023-02-15T18:03:47;61.72;;;35.67;;
38787;SDS011;24536;45.488;12.238;2023-02-15T18:06:32;64.63;;;37.17;;
38787;SDS011;24536;45.488;12.238;2023-02-15T18:09:19;66.72;;;36.05;;
38787;SDS011;24536;45.488;12.238;2023-02-15T18:14:48;67.18;;;36.88;;
38787;SDS011;24536;45.488;12.238;2023-02-15T18:17:15;72.32;;;37.50;;
38787;SDS011;24536;45.488;12.238;2023-02-15T18:19:43;68.13;;;35.20;;
38787;SDS011;24536;45.488;12.238;2023-02-15T18:22:10;70.78;;;37.55;;
38787;SDS011;24536;45.488;12.238;2023-02-15T18:24:37;66.53;;;35.55;;
38787;SDS011;24536;45.488;12.238;2023-02-15T18:27:03;60.38;;;34.35;;
38787;SDS011;24536;45.488;12.238;2023-02-15T18:29:30;55.05;;;33.25;;
38787;SDS011;24536;45.488;12.238;2023-02-15T18:31:56;65.07;;;35.25;;
38787;SDS011;24536;45.488;12.238;2023-02-15T18:34:31;60.38;;;32.83;;
38787;SDS011;24536;45.488;12.238;2023-02-15T18:37:05;65.28;;;34.38;;
38787;SDS011;24536;45.488;12.238;2023-02-15T18:39:49;70.28;;;35.38;;